createdAt,value
2023-02-11T00:01:52.284Z,30.20
2023-02-11T00:04:20.200Z,27.90
2023-02-11T00:06:48.001Z,30.90
2023-02-11T00:09:16.004Z,29.30
2023-02-11T00:11:43.716Z,32.70
2023-02-11T00:14:11.989Z,31.60
2023-02-11T00:16:40.093Z,31.00
2023-02-11T00:19:07.887Z,30.30
2023-02-11T00:21:36.030Z,32.60
2023-02-11T00:24:06.700Z,30.40
2023-02-11T00:26:35.760Z,28.30
2023-02-11T00:29:05.170Z,32.70
2023-02-11T00:31:33.723Z,25.80
2023-02-11T00:34:01.857Z,33.40
2023-02-11T00:36:30.268Z,34.40
2023-02-11T00:38:58.999Z,33.40
2023-02-11T00:41:26.817Z,31.00
2023-02-11T00:43:54.717Z,30.20
2023-02-11T00:46:23.139Z,31.80
2023-02-11T00:48:53.404Z,34.70
2023-02-11T00:51:21.219Z,34.30
2023-02-11T00:53:49.032Z,34.40
2023-02-11T00:56:16.769Z,33.70
2023-02-11T00:58:44.964Z,29.30
2023-02-11T01:01:13.135Z,31.70
2023-02-11T01:03:41.510Z,31.50
2023-02-11T01:06:10.028Z,38.30
2023-02-11T01:08:38.773Z,34.20
2023-02-11T01:11:12.284Z,33.50
2023-02-11T01:13:40.306Z,28.40
2023-02-11T01:16:09.890Z,31.30
2023-02-11T01:18:37.930Z,29.10
2023-02-11T01:21:06.118Z,31.90
2023-02-11T01:23:33.917Z,38.30
2023-02-11T01:26:01.967Z,33.50
2023-02-11T01:28:31.228Z,32.50
2023-02-11T01:31:03.616Z,28.70
2023-02-11T01:33:31.841Z,28.00
2023-02-11T01:36:04.932Z,30.50
2023-02-11T01:38:33.568Z,34.20
2023-02-11T01:41:04.019Z,33.00
2023-02-11T01:43:36.071Z,31.40
2023-02-11T01:46:29.939Z,32.60
2023-02-11T01:49:03.695Z,32.80
2023-02-11T01:51:36.581Z,32.10
2023-02-11T01:54:25.018Z,31.20
2023-02-11T01:57:11.978Z,32.30
2023-02-11T01:59:45.226Z,30.30
2023-02-11T02:02:14.136Z,26.80
2023-02-11T02:04:47.251Z,29.30
2023-02-11T02:07:25.018Z,29.10
2023-02-11T02:09:58.696Z,37.50
2023-02-11T02:12:26.656Z,32.00
2023-02-11T02:15:18.176Z,34.20
2023-02-11T02:17:57.897Z,32.70
2023-02-11T02:20:52.339Z,27.70
2023-02-11T02:23:41.974Z,25.70
2023-02-11T02:26:34.642Z,28.40
2023-02-11T02:29:33.265Z,25.40
2023-02-11T02:32:25.691Z,29.10
2023-02-11T02:35:24.355Z,26.70
2023-02-11T02:38:06.620Z,27.60
2023-02-11T02:41:14.016Z,26.70
2023-02-11T02:43:48.250Z,25.70
2023-02-11T02:46:27.651Z,32.70
2023-02-11T02:48:57.055Z,29.80
2023-02-11T02:51:32.927Z,27.60
2023-02-11T02:54:22.224Z,28.40
2023-02-11T02:57:23.111Z,30.30
2023-02-11T03:00:16.219Z,28.40
2023-02-11T03:03:03.065Z,24.00
2023-02-11T03:05:55.294Z,29.90
2023-02-11T03:08:35.085Z,29.60
2023-02-11T03:11:06.051Z,31.50
2023-02-11T03:13:36.280Z,25.50
2023-02-11T03:16:26.543Z,28.40
2023-02-11T03:19:13.008Z,30.10
2023-02-11T03:21:42.154Z,27.60
2023-02-11T03:24:29.526Z,30.90
2023-02-11T03:27:01.479Z,26.10
2023-02-11T03:29:35.963Z,28.00
2023-02-11T03:32:06.923Z,28.00
2023-02-11T03:34:44.123Z,30.40
2023-02-11T03:37:26.520Z,26.30
2023-02-11T03:40:14.033Z,25.50
2023-02-11T03:42:46.598Z,27.10
2023-02-11T03:45:17.386Z,27.80
2023-02-11T03:47:49.421Z,27.50
2023-02-11T03:50:18.528Z,28.40
2023-02-11T03:52:48.009Z,26.60
2023-02-11T03:55:20.148Z,28.20
2023-02-11T03:57:48.360Z,25.40
2023-02-11T04:00:16.271Z,33.40
2023-02-11T04:02:44.804Z,26.60
2023-02-11T04:05:15.504Z,29.20
2023-02-11T04:07:43.437Z,32.90
2023-02-11T04:10:12.502Z,28.20
2023-02-11T04:12:40.484Z,27.80
2023-02-11T04:15:08.672Z,27.20
2023-02-11T04:17:36.892Z,30.40
2023-02-11T04:20:05.237Z,31.50
2023-02-11T04:22:32.941Z,25.30
2023-02-11T04:25:00.827Z,25.80
2023-02-11T04:27:28.756Z,31.30
2023-02-11T04:29:57.030Z,27.80
2023-02-11T04:32:24.775Z,24.80
2023-02-11T04:34:52.687Z,26.40
2023-02-11T04:37:20.515Z,28.10
2023-02-11T04:39:48.208Z,27.30
2023-02-11T04:42:16.182Z,27.80
2023-02-11T04:44:44.138Z,24.30
2023-02-11T04:47:13.551Z,29.20
2023-02-11T04:49:41.993Z,28.00
2023-02-11T04:52:09.710Z,26.30
2023-02-11T04:54:37.652Z,26.90
2023-02-11T04:57:05.581Z,26.10
2023-02-11T04:59:33.472Z,26.50
2023-02-11T05:02:01.261Z,25.10
2023-02-11T05:04:29.123Z,21.70
2023-02-11T05:06:58.637Z,27.80
2023-02-11T05:09:26.730Z,25.10
2023-02-11T05:11:57.502Z,24.70
2023-02-11T05:14:25.493Z,25.60
2023-02-11T05:16:53.392Z,23.40
2023-02-11T05:19:21.298Z,27.50
2023-02-11T05:22:01.639Z,22.70
2023-02-11T05:24:32.340Z,23.30
2023-02-11T05:27:00.663Z,23.80
2023-02-11T05:29:28.789Z,28.00
2023-02-11T05:31:56.648Z,26.70
2023-02-11T05:34:24.517Z,24.60
2023-02-11T05:36:52.521Z,23.80
2023-02-11T05:39:20.327Z,25.00
2023-02-11T05:41:48.231Z,28.70
2023-02-11T05:44:16.005Z,23.80
2023-02-11T05:46:44.046Z,21.50
2023-02-11T05:49:11.975Z,20.90
2023-02-11T05:51:39.748Z,25.60
2023-02-11T05:54:07.599Z,31.20
2023-02-11T05:56:35.307Z,24.90
2023-02-11T05:59:03.289Z,24.00
2023-02-11T06:01:31.145Z,24.50
2023-02-11T06:03:59.007Z,27.10
2023-02-11T06:06:26.936Z,26.30
2023-02-11T06:08:54.798Z,24.50
2023-02-11T06:11:22.773Z,28.20
2023-02-11T06:13:50.916Z,28.60
2023-02-11T06:16:18.682Z,25.60
2023-02-11T06:18:46.601Z,26.30
2023-02-11T06:21:14.434Z,27.00
2023-02-11T06:23:43.405Z,23.20
2023-02-11T06:26:20.431Z,26.40
2023-02-11T06:28:48.650Z,25.00
2023-02-11T06:31:16.796Z,24.00
2023-02-11T06:33:44.759Z,26.50
2023-02-11T06:36:16.474Z,23.00
2023-02-11T06:38:44.682Z,23.60
2023-02-11T06:41:17.645Z,24.50
2023-02-11T06:43:45.750Z,26.70
2023-02-11T06:46:13.805Z,24.00
2023-02-11T06:48:44.657Z,26.00
2023-02-11T06:51:13.888Z,26.30
2023-02-11T06:53:46.594Z,27.40
2023-02-11T06:56:19.432Z,26.00
2023-02-11T06:58:47.969Z,26.30
2023-02-11T07:01:16.483Z,26.20
2023-02-11T07:03:45.335Z,27.20
2023-02-11T07:06:16.651Z,24.40
2023-02-11T07:08:46.291Z,27.40
2023-02-11T07:11:24.634Z,22.40
2023-02-11T07:13:55.033Z,25.70
2023-02-11T07:16:23.350Z,27.00
2023-02-11T07:18:51.349Z,27.50
2023-02-11T07:21:21.741Z,26.60
2023-02-11T07:23:49.712Z,23.30
2023-02-11T07:26:19.864Z,25.20
2023-02-11T07:28:47.658Z,26.30
2023-02-11T07:31:27.847Z,27.60
2023-02-11T07:33:58.182Z,27.10
2023-02-11T07:36:28.429Z,26.80
2023-02-11T07:38:56.502Z,27.20
2023-02-11T07:41:28.273Z,27.50
2023-02-11T07:43:56.509Z,28.80
2023-02-11T07:46:27.175Z,22.50
2023-02-11T07:48:55.635Z,26.10
2023-02-11T07:51:26.412Z,25.30
2023-02-11T07:53:55.544Z,24.30
2023-02-11T07:56:24.105Z,25.60
2023-02-11T07:58:51.989Z,22.00
2023-02-11T08:01:27.299Z,20.00
2023-02-11T08:03:57.085Z,23.60
2023-02-11T08:06:26.549Z,22.20
2023-02-11T08:08:54.815Z,22.90
2023-02-11T08:11:25.499Z,24.40
2023-02-11T08:13:54.132Z,27.30
2023-02-11T08:16:27.801Z,28.90
2023-02-11T08:18:57.797Z,25.90
2023-02-11T08:21:26.401Z,22.70
2023-02-11T08:23:54.859Z,22.40
2023-02-11T08:26:25.416Z,24.40
2023-02-11T08:28:55.363Z,23.30
2023-02-11T08:31:26.507Z,22.50
2023-02-11T08:33:57.955Z,22.60
2023-02-11T08:36:29.802Z,23.20
2023-02-11T08:39:18.037Z,25.60
2023-02-11T08:41:57.000Z,28.50
2023-02-11T08:44:25.280Z,32.60
2023-02-11T08:46:53.602Z,25.50
2023-02-11T08:49:21.693Z,30.60
2023-02-11T08:51:50.007Z,27.90
2023-02-11T08:54:17.953Z,24.60
2023-02-11T08:56:46.028Z,27.10
2023-02-11T08:59:15.232Z,33.10
2023-02-11T09:01:44.538Z,25.00
2023-02-11T09:04:13.097Z,26.50
2023-02-11T09:06:41.308Z,29.10
2023-02-11T09:09:13.719Z,28.80
2023-02-11T09:11:42.689Z,26.50
2023-02-11T09:14:18.296Z,26.50
2023-02-11T09:16:46.503Z,25.50
2023-02-11T09:19:14.393Z,24.50
2023-02-11T09:21:42.298Z,26.10
2023-02-11T09:24:10.977Z,27.60
2023-02-11T09:26:38.997Z,25.20
2023-02-11T09:29:06.993Z,26.20
2023-02-11T09:31:35.432Z,27.50
2023-02-11T09:34:06.104Z,23.50
2023-02-11T09:36:37.584Z,24.00
2023-02-11T09:39:08.512Z,22.60
2023-02-11T09:41:43.723Z,23.90
2023-02-11T09:44:20.655Z,26.20
2023-02-11T09:46:56.815Z,25.80
2023-02-11T09:49:45.144Z,26.70
2023-02-11T09:52:43.435Z,23.80
2023-02-11T09:55:28.281Z,26.20
2023-02-11T09:57:56.820Z,21.30
2023-02-11T10:00:29.880Z,22.40
2023-02-11T10:06:07.164Z,19.80
2023-02-11T10:08:41.988Z,28.80
2023-02-11T10:11:35.697Z,23.40
2023-02-11T10:17:23.166Z,22.20
2023-02-11T10:20:03.541Z,19.60
2023-02-11T10:22:36.844Z,20.10
2023-02-11T10:25:34.204Z,23.30
2023-02-11T10:28:15.349Z,20.80
2023-02-11T10:31:00.318Z,21.90
2023-02-11T10:33:32.846Z,24.70
2023-02-11T10:36:00.654Z,25.40
2023-02-11T10:38:28.585Z,21.40
2023-02-11T10:40:56.544Z,23.00
2023-02-11T10:43:27.151Z,21.20
2023-02-11T10:45:56.540Z,20.90
2023-02-11T10:48:43.910Z,21.50
2023-02-11T10:51:18.440Z,20.70
2023-02-11T10:53:48.365Z,26.20
2023-02-11T10:56:26.062Z,26.90
2023-02-11T10:59:22.166Z,22.60
2023-02-11T11:01:51.883Z,21.60
2023-02-11T11:04:37.817Z,23.20
2023-02-11T11:07:29.488Z,24.30
2023-02-11T11:09:59.850Z,22.60
2023-02-11T11:12:27.735Z,22.20
2023-02-11T11:15:25.978Z,26.20
2023-02-11T11:18:20.875Z,25.00
2023-02-11T11:21:00.186Z,21.50
2023-02-11T11:23:29.889Z,23.50
2023-02-11T11:26:15.105Z,23.30
2023-02-11T11:28:55.267Z,22.80
2023-02-11T11:31:35.896Z,23.80
2023-02-11T11:34:37.304Z,22.70
2023-02-11T11:37:35.308Z,29.40
2023-02-11T11:40:15.775Z,26.20
2023-02-11T11:42:44.043Z,25.60
2023-02-11T11:45:19.622Z,24.90
2023-02-11T11:47:56.379Z,27.70
2023-02-11T11:50:43.661Z,24.50
2023-02-11T11:53:23.705Z,24.10
2023-02-11T11:56:07.789Z,21.70
2023-02-11T11:58:35.927Z,25.30
2023-02-11T12:01:13.072Z,27.10
2023-02-11T12:04:04.772Z,23.90
2023-02-11T12:06:42.710Z,25.40
2023-02-11T12:09:26.243Z,23.40
2023-02-11T12:12:00.079Z,22.80
2023-02-11T12:14:35.703Z,22.60
2023-02-11T12:17:14.943Z,21.20
2023-02-11T12:20:02.836Z,21.50
2023-02-11T12:22:50.062Z,23.00
2023-02-11T12:25:21.512Z,25.80
2023-02-11T12:28:12.957Z,22.80
2023-02-11T12:31:10.874Z,26.60
2023-02-11T12:34:17.003Z,26.60
2023-02-11T12:37:08.001Z,22.10
2023-02-11T12:39:54.882Z,20.00
2023-02-11T12:43:01.498Z,21.60
2023-02-11T12:45:42.386Z,24.10
2023-02-11T12:48:23.009Z,23.70
2023-02-11T12:50:53.435Z,21.70
2023-02-11T12:53:24.493Z,25.20
2023-02-11T12:56:12.927Z,21.50
2023-02-11T12:58:45.437Z,20.10
2023-02-11T13:01:40.122Z,23.60
2023-02-11T13:04:09.424Z,21.10
2023-02-11T13:06:43.880Z,22.60
2023-02-11T13:09:27.316Z,21.20
2023-02-11T13:11:58.093Z,26.30
2023-02-11T13:14:37.846Z,25.10
2023-02-11T13:17:23.329Z,22.70
2023-02-11T13:19:54.797Z,25.60
2023-02-11T13:22:31.312Z,22.10
2023-02-11T13:25:06.763Z,22.10
2023-02-11T13:27:43.999Z,22.10
2023-02-11T13:30:39.997Z,20.30
2023-02-11T13:33:20.888Z,24.60
2023-02-11T13:36:10.214Z,25.00
2023-02-11T13:38:38.971Z,23.90
2023-02-11T13:41:25.059Z,21.00
2023-02-11T13:44:00.388Z,19.80
2023-02-11T13:46:30.282Z,20.70
2023-02-11T13:48:58.498Z,24.50
2023-02-11T13:51:36.714Z,21.30
2023-02-11T13:54:05.970Z,21.50
2023-02-11T13:56:36.199Z,21.70
2023-02-11T13:59:27.532Z,27.40
2023-02-11T14:02:36.015Z,22.30
2023-02-11T14:05:22.508Z,20.00
2023-02-11T14:08:28.648Z,20.80
2023-02-11T14:11:00.335Z,21.70
2023-02-11T14:13:55.283Z,22.10
2023-02-11T14:16:37.008Z,23.10
2023-02-11T14:19:08.800Z,22.30
2023-02-11T14:21:40.550Z,24.00
2023-02-11T14:24:11.792Z,23.50
2023-02-11T14:26:56.418Z,25.50
2023-02-11T14:29:41.648Z,26.90
2023-02-11T14:32:18.337Z,22.80
2023-02-11T14:34:52.220Z,21.00
2023-02-11T14:37:50.619Z,20.60
2023-02-11T14:40:51.127Z,19.70
2023-02-11T14:43:23.042Z,19.60
2023-02-11T14:45:56.724Z,21.70
2023-02-11T14:48:31.104Z,24.80
2023-02-11T14:51:02.457Z,23.60
2023-02-11T14:53:32.175Z,22.70
2023-02-11T14:56:00.335Z,20.80
2023-02-11T14:58:32.994Z,20.20
2023-02-11T15:01:06.438Z,25.60
2023-02-11T15:03:41.964Z,20.00
2023-02-11T15:06:28.628Z,20.60
2023-02-11T15:09:04.001Z,24.70
2023-02-11T15:11:40.230Z,22.10
2023-02-11T15:14:11.629Z,20.20
2023-02-11T15:16:44.341Z,22.40
2023-02-11T15:19:36.103Z,23.20
2023-02-11T15:22:25.754Z,21.60
2023-02-11T15:25:11.667Z,22.30
2023-02-11T15:27:42.147Z,21.30
2023-02-11T15:30:22.834Z,22.10
2023-02-11T15:33:00.271Z,22.60
2023-02-11T15:35:35.399Z,21.30
2023-02-11T15:38:04.862Z,21.80
2023-02-11T15:40:35.041Z,22.00
2023-02-11T15:43:08.413Z,21.20
2023-02-11T15:45:45.385Z,21.70
2023-02-11T15:48:20.803Z,20.60
2023-02-11T15:50:53.301Z,22.50
2023-02-11T15:53:35.009Z,22.00
2023-02-11T15:56:11.885Z,17.60
2023-02-11T15:58:41.837Z,20.70
2023-02-11T16:01:10.872Z,24.50
2023-02-11T16:03:38.812Z,21.00
2023-02-11T16:06:21.441Z,20.20
2023-02-11T16:09:06.495Z,17.80
2023-02-11T16:11:39.049Z,19.10
2023-02-11T16:14:42.579Z,18.80
2023-02-11T16:17:23.431Z,18.60
2023-02-11T16:19:53.238Z,19.60
2023-02-11T16:22:30.350Z,19.30
2023-02-11T16:24:59.167Z,17.60
2023-02-11T16:27:38.559Z,16.90
2023-02-11T16:30:07.938Z,18.80
2023-02-11T16:32:36.225Z,19.90
2023-02-11T16:35:09.062Z,15.80
2023-02-11T16:37:37.727Z,20.60
2023-02-11T16:40:06.411Z,19.50
2023-02-11T16:42:34.159Z,18.70
2023-02-11T16:45:02.247Z,19.20
2023-02-11T16:47:31.442Z,17.20
2023-02-11T16:49:59.784Z,17.40
2023-02-11T16:52:31.324Z,17.70
2023-02-11T16:54:59.859Z,17.60
2023-02-11T16:57:30.212Z,19.50
2023-02-11T16:59:59.565Z,17.00
2023-02-11T17:02:30.941Z,16.00
2023-02-11T17:05:01.628Z,15.60
2023-02-11T17:07:29.547Z,15.20
2023-02-11T17:09:57.695Z,17.90
2023-02-11T17:12:25.619Z,15.70
2023-02-11T17:14:54.106Z,18.50
2023-02-11T17:17:24.438Z,19.80
2023-02-11T17:19:52.589Z,19.70
2023-02-11T17:22:20.522Z,17.70
2023-02-11T17:24:48.496Z,16.70
2023-02-11T17:27:17.202Z,15.80
2023-02-11T17:29:45.435Z,15.90
2023-02-11T17:32:13.877Z,18.10
2023-02-11T17:34:41.820Z,18.10
2023-02-11T17:37:09.901Z,20.30
2023-02-11T17:39:39.797Z,15.20
2023-02-11T17:42:08.870Z,15.50
2023-02-11T17:44:37.575Z,14.90
2023-02-11T17:47:05.878Z,16.10
2023-02-11T17:49:33.920Z,18.20
2023-02-11T17:52:02.321Z,17.30
2023-02-11T17:54:32.068Z,16.90
2023-02-11T17:57:01.341Z,17.20
2023-02-11T17:59:35.680Z,15.90
2023-02-11T18:02:04.969Z,17.50
2023-02-11T18:04:33.257Z,18.00
2023-02-11T18:07:02.381Z,20.70
2023-02-11T18:09:30.493Z,19.80
2023-02-11T18:11:59.288Z,17.60
2023-02-11T18:14:29.816Z,20.50
2023-02-11T18:16:57.940Z,17.80
2023-02-11T18:19:25.947Z,16.40
2023-02-11T18:21:54.273Z,18.90
2023-02-11T18:24:22.033Z,24.00
2023-02-11T18:26:50.235Z,20.90
2023-02-11T18:29:18.314Z,18.50
2023-02-11T18:31:46.379Z,18.20
2023-02-11T18:34:16.053Z,17.10
2023-02-11T18:36:44.577Z,18.80
2023-02-11T18:39:12.317Z,17.40
2023-02-11T18:41:42.354Z,19.20
2023-02-11T18:44:14.943Z,20.20
2023-02-11T18:46:44.496Z,18.40
2023-02-11T18:49:13.365Z,17.70
2023-02-11T18:51:41.563Z,16.40
2023-02-11T18:54:09.645Z,17.10
2023-02-11T18:56:37.743Z,15.00
2023-02-11T18:59:06.520Z,21.40
2023-02-11T19:01:34.938Z,19.50
2023-02-11T19:04:04.874Z,19.30
2023-02-11T19:06:37.168Z,17.80
2023-02-11T19:09:10.568Z,17.10
2023-02-11T19:11:54.568Z,15.80
2023-02-11T19:14:24.831Z,16.50
2023-02-11T19:16:56.545Z,19.40
2023-02-11T19:19:28.070Z,19.50
2023-02-11T19:21:58.073Z,19.20
2023-02-11T19:24:27.329Z,16.30
2023-02-11T19:26:59.661Z,16.40
2023-02-11T19:29:28.613Z,16.00
2023-02-11T19:31:56.543Z,18.20
2023-02-11T19:34:24.935Z,18.80
2023-02-11T19:36:54.282Z,17.30
2023-02-11T19:39:25.005Z,15.50
2023-02-11T19:41:53.542Z,19.90
2023-02-11T19:44:21.575Z,15.00
2023-02-11T19:46:50.456Z,15.10
2023-02-11T19:49:23.449Z,17.80
2023-02-11T19:51:53.948Z,17.50
2023-02-11T19:54:24.241Z,16.60
2023-02-11T19:56:53.905Z,14.00
2023-02-11T19:59:22.134Z,14.40
2023-02-11T20:01:50.874Z,16.50
2023-02-11T20:04:19.806Z,16.00
2023-02-11T20:06:50.871Z,18.00
2023-02-11T20:09:19.014Z,17.10
2023-02-11T20:11:48.386Z,16.60
2023-02-11T20:14:17.390Z,17.10
2023-02-11T20:16:49.561Z,16.10
2023-02-11T20:19:20.572Z,16.00
2023-02-11T20:21:51.419Z,14.60
2023-02-11T20:24:20.654Z,16.40
2023-02-11T20:26:49.208Z,15.50
2023-02-11T20:29:17.954Z,16.00
2023-02-11T20:31:46.138Z,14.40
2023-02-11T20:34:14.922Z,11.90
2023-02-11T20:36:43.816Z,14.60
2023-02-11T20:39:17.465Z,13.90
2023-02-11T20:41:46.414Z,17.80
2023-02-11T20:44:14.454Z,17.80
2023-02-11T20:46:46.643Z,14.40
2023-02-11T20:49:19.040Z,17.40
2023-02-11T20:51:47.292Z,15.70
2023-02-11T20:54:18.139Z,15.10
2023-02-11T20:56:48.184Z,16.20
2023-02-11T20:59:18.819Z,17.10
2023-02-11T21:01:50.605Z,18.80
2023-02-11T21:04:25.594Z,15.90
2023-02-11T21:06:57.882Z,14.50
2023-02-11T21:09:31.025Z,16.30
2023-02-11T21:12:00.602Z,15.10
2023-02-11T21:14:29.436Z,15.00
2023-02-11T21:17:00.008Z,16.30
2023-02-11T21:19:29.105Z,18.00
2023-02-11T21:22:01.773Z,14.90
2023-02-11T21:24:33.769Z,16.70
2023-02-11T21:27:03.835Z,15.10
2023-02-11T21:29:35.142Z,16.20
2023-02-11T21:32:05.984Z,15.90
2023-02-11T21:34:36.242Z,18.80
2023-02-11T21:37:04.268Z,20.10
2023-02-11T21:39:33.692Z,18.60
2023-02-11T21:42:02.391Z,17.60
2023-02-11T21:44:32.972Z,16.60
2023-02-11T21:47:00.973Z,15.80
2023-02-11T21:49:30.505Z,16.10
2023-02-11T21:51:58.457Z,20.20
2023-02-11T21:54:32.158Z,17.80
2023-02-11T21:57:03.413Z,14.70
2023-02-11T21:59:32.744Z,14.80
2023-02-11T22:02:01.592Z,14.90
2023-02-11T22:04:29.867Z,16.60
2023-02-11T22:07:00.483Z,15.70
2023-02-11T22:09:32.069Z,14.90
2023-02-11T22:12:00.628Z,15.80
2023-02-11T22:14:30.142Z,14.90
2023-02-11T22:17:00.196Z,15.80
2023-02-11T22:19:28.256Z,14.20
2023-02-11T22:21:56.467Z,15.30
2023-02-11T22:24:25.023Z,15.00
2023-02-11T22:26:56.808Z,16.00
2023-02-11T22:29:27.393Z,15.70
2023-02-11T22:31:58.888Z,14.80
2023-02-11T22:34:26.855Z,15.30
2023-02-11T22:36:54.734Z,17.00
2023-02-11T22:39:22.848Z,14.50
2023-02-11T22:41:50.793Z,14.80
2023-02-11T22:44:20.026Z,18.60
2023-02-11T22:46:48.015Z,17.00
2023-02-11T22:49:17.104Z,17.00
2023-02-11T22:51:46.151Z,18.20
2023-02-11T22:54:16.386Z,16.80
2023-02-11T22:56:45.042Z,15.00
2023-02-11T22:59:14.832Z,16.90
2023-02-11T23:01:43.152Z,16.30
2023-02-11T23:04:12.964Z,19.50
2023-02-11T23:06:40.901Z,20.40
2023-02-11T23:09:10.657Z,15.90
2023-02-11T23:11:41.928Z,18.30
2023-02-11T23:14:12.407Z,17.40
2023-02-11T23:16:40.250Z,18.40
2023-02-11T23:19:09.203Z,17.40
2023-02-11T23:21:38.610Z,19.40
2023-02-11T23:24:13.980Z,17.60
2023-02-11T23:26:42.919Z,18.40
2023-02-11T23:29:11.849Z,17.20
2023-02-11T23:31:43.462Z,18.50
2023-02-11T23:34:12.078Z,15.50
2023-02-11T23:36:39.887Z,13.40
2023-02-11T23:39:07.832Z,15.30
2023-02-11T23:41:35.897Z,16.20
2023-02-11T23:44:03.779Z,16.10
2023-02-11T23:46:31.618Z,14.20
2023-02-11T23:48:59.646Z,14.00
2023-02-11T23:51:27.350Z,14.90
2023-02-11T23:53:56.260Z,13.50
2023-02-11T23:56:26.550Z,18.40
2023-02-11T23:58:56.485Z,15.60
